createdAt,value
2022-08-14T00:03:47.812Z,20.7
2022-08-14T00:09:01.147Z,20.7
2022-08-14T00:14:04.211Z,20.7
2022-08-14T00:19:22.693Z,20.7
2022-08-14T00:24:32.039Z,20.7
2022-08-14T00:29:17.606Z,20.7
2022-08-14T00:34:49.289Z,20.5
2022-08-14T00:39:22.835Z,20.5
2022-08-14T00:44:34.551Z,20.5
2022-08-14T00:49:31.208Z,20.5
2022-08-14T00:54:36.451Z,20.4
2022-08-14T00:59:42.546Z,20.4
2022-08-14T01:04:57.125Z,20.4
2022-08-14T01:09:49.392Z,20.4
2022-08-14T01:14:52.965Z,20.4
2022-08-14T01:19:55.909Z,20.5
2022-08-14T01:24:59.941Z,20.5
2022-08-14T01:36:07.401Z,20.6
2022-08-14T01:40:32.966Z,20.6
2022-08-14T01:45:27.472Z,20.6
2022-08-14T01:50:35.869Z,20.6
2022-08-14T01:55:41.309Z,20.6
2022-08-14T02:00:43.727Z,20.6
2022-08-14T02:05:51.350Z,20.7
2022-08-14T02:10:53.936Z,20.6
2022-08-14T02:15:59.761Z,20.6
2022-08-14T02:21:04.580Z,20.7
2022-08-14T02:26:31.979Z,20.6
2022-08-14T02:31:11.056Z,20.6
2022-08-14T02:37:08.142Z,20.6
2022-08-14T02:41:39.064Z,20.6
2022-08-14T02:46:35.163Z,20.5
2022-08-14T02:51:31.483Z,20.4
2022-08-14T02:57:40.903Z,20.4
2022-08-14T03:01:56.165Z,20.3
2022-08-14T03:07:09.168Z,20.2
2022-08-14T03:11:48.001Z,20.1
2022-08-14T03:16:53.383Z,20
2022-08-14T03:21:56.800Z,19.9
2022-08-14T03:27:01.196Z,19.8
2022-08-14T03:32:06.809Z,19.7
2022-08-14T03:39:22.379Z,19.7
2022-08-14T03:42:25.340Z,19.7
2022-08-14T03:47:15.279Z,19.8
2022-08-14T03:52:57.267Z,19.9
2022-08-14T03:57:25.846Z,19.9
2022-08-14T04:02:53.263Z,20
2022-08-14T04:07:38.262Z,20.1
2022-08-14T04:12:41.359Z,19.9
2022-08-14T04:17:47.444Z,20
2022-08-14T04:22:56.856Z,20
2022-08-14T04:28:05.569Z,20.3
2022-08-14T04:33:21.812Z,20.4
2022-08-14T04:38:40.957Z,20.5
2022-08-14T04:43:18.557Z,20.6
2022-08-14T04:48:55.362Z,20.7
2022-08-14T04:53:43.943Z,20.7
2022-08-14T04:58:40.086Z,20.8
2022-08-14T05:03:43.070Z,20.7
2022-08-14T05:09:01.914Z,20.8
2022-08-14T05:14:55.826Z,20.8
2022-08-14T05:19:32.154Z,21
2022-08-14T05:24:06.727Z,21.3
2022-08-14T05:29:13.949Z,21.5
2022-08-14T05:34:20.200Z,21.7
2022-08-14T05:39:23.268Z,21.9
2022-08-14T05:44:32.189Z,22.2
2022-08-14T05:49:39.291Z,22.6
2022-08-14T05:54:41.533Z,22.6
2022-08-14T05:59:45.908Z,22.8
2022-08-14T06:04:51.268Z,23.1
2022-08-14T06:09:54.601Z,23.5
2022-08-14T06:15:01.939Z,23.5
2022-08-14T06:20:12.676Z,23.3
2022-08-14T06:25:22.313Z,23.5
2022-08-14T06:30:17.485Z,23.8
2022-08-14T06:35:20.673Z,23.8
2022-08-14T06:40:30.108Z,24.4
2022-08-14T06:45:28.844Z,24.6
2022-08-14T06:50:34.878Z,25.1
2022-08-14T06:55:58.651Z,25.1
2022-08-14T07:00:49.450Z,24.9
2022-08-14T07:05:59.754Z,24.9
2022-08-14T07:10:55.899Z,25.5
2022-08-14T07:16:00.787Z,25.9
2022-08-14T07:20:58.348Z,26.6
2022-08-14T07:26:01.109Z,26.8
2022-08-14T07:31:07.476Z,27.8
2022-08-14T07:36:32.365Z,28.3
2022-08-14T07:41:17.781Z,29.8
2022-08-14T07:46:31.931Z,30.1
2022-08-14T07:51:38.578Z,29.7
2022-08-14T07:56:56.683Z,30.7
2022-08-14T08:01:32.132Z,31.1
2022-08-14T08:06:35.766Z,30.6
2022-08-14T08:11:42.994Z,31.3
2022-08-14T08:16:47.110Z,32.3
2022-08-14T08:21:55.729Z,30.5
2022-08-14T08:27:00.358Z,31.6
2022-08-14T08:32:08.130Z,32.9
2022-08-14T08:37:10.397Z,33.8
2022-08-14T08:42:18.714Z,33.4
2022-08-14T08:47:13.939Z,34.2
2022-08-14T08:52:33.167Z,35.2
2022-08-14T08:57:26.607Z,35.1
2022-08-14T09:02:29.981Z,36.4
2022-08-14T09:07:35.847Z,36.2
2022-08-14T09:12:38.611Z,34.8
2022-08-14T09:17:42.229Z,37.2
2022-08-14T09:22:51.337Z,37.5
2022-08-14T09:27:48.032Z,37.3
2022-08-14T09:33:14.512Z,39.1
2022-08-14T09:37:57.213Z,38.6
2022-08-14T09:43:06.510Z,38.2
2022-08-14T09:48:10.865Z,39.3
2022-08-14T09:54:19.789Z,41.1
2022-08-14T09:58:25.743Z,41.1
2022-08-14T10:03:18.328Z,39.7
2022-08-14T10:08:28.008Z,40.2
2022-08-14T10:13:57.007Z,41.8
2022-08-14T10:18:41.026Z,40.7
2022-08-14T10:23:44.575Z,38.3
2022-08-14T10:29:25.179Z,35.8
2022-08-14T10:33:53.191Z,34.5
2022-08-14T10:38:58.129Z,34.4
2022-08-14T10:44:04.266Z,32.4
2022-08-14T10:49:07.886Z,32.3
2022-08-14T10:54:42.379Z,31.8
2022-08-14T10:59:18.750Z,31.4
2022-08-14T11:04:30.483Z,31.1
2022-08-14T11:09:31.357Z,31
2022-08-14T11:14:28.809Z,30.7
2022-08-14T11:19:36.032Z,30.2
2022-08-14T11:24:57.736Z,28.7
2022-08-14T11:30:53.913Z,28
2022-08-14T11:34:57.348Z,27.7
2022-08-14T11:40:02.022Z,27.8
2022-08-14T11:45:16.994Z,28
2022-08-14T11:50:04.996Z,28.1
2022-08-14T11:55:08.925Z,27.4
2022-08-14T12:00:34.214Z,27.3
2022-08-14T12:05:24.388Z,28.9
2022-08-14T12:10:42.635Z,30.7
2022-08-14T12:15:29.937Z,33
2022-08-14T12:20:34.804Z,32.3
2022-08-14T12:25:38.289Z,32.5
2022-08-14T12:30:46.639Z,32.2
2022-08-14T12:35:48.257Z,32.3
2022-08-14T12:40:51.843Z,33.7
2022-08-14T12:45:58.451Z,33.9
2022-08-14T12:51:03.358Z,34.4
2022-08-14T12:56:35.339Z,34.1
2022-08-14T13:01:21.963Z,33.3
2022-08-14T13:06:16.621Z,32.6
2022-08-14T13:11:25.582Z,32.4
2022-08-14T13:16:39.568Z,32.6
2022-08-14T13:21:24.272Z,31.8
2022-08-14T13:26:30.390Z,31.9
2022-08-14T13:31:36.392Z,31.8
2022-08-14T13:37:05.247Z,31.4
2022-08-14T13:41:57.637Z,32.2
2022-08-14T13:46:52.848Z,32.6
2022-08-14T13:51:58.231Z,33.3
2022-08-14T13:57:02.772Z,33.5
2022-08-14T14:02:09.360Z,32.4
2022-08-14T14:07:14.090Z,32.7
2022-08-14T14:12:59.639Z,32.4
2022-08-14T14:17:25.521Z,31.7
2022-08-14T14:23:11.932Z,31.1
2022-08-14T14:27:43.981Z,30.9
2022-08-14T14:33:42.039Z,31.6
2022-08-14T14:37:49.701Z,31.7
2022-08-14T14:42:56.973Z,32
2022-08-14T14:48:02.551Z,31.8
2022-08-14T14:53:14.762Z,31.3
2022-08-14T14:58:22.537Z,31
2022-08-14T15:03:18.124Z,31.4
2022-08-14T15:08:58.305Z,31.2
2022-08-14T15:13:34.788Z,31.4
2022-08-14T15:18:46.952Z,31
2022-08-14T15:23:47.156Z,30.9
2022-08-14T15:29:04.862Z,30.8
2022-08-14T15:34:52.028Z,30.8
2022-08-14T15:38:59.051Z,30.9
2022-08-14T15:44:06.718Z,31.1
2022-08-14T15:54:17.468Z,30.8
2022-08-14T15:59:21.864Z,30.8
2022-08-14T16:04:19.462Z,31
2022-08-14T16:09:23.947Z,31.2
2022-08-14T16:14:28.928Z,31
2022-08-14T16:19:46.634Z,30.9
2022-08-14T16:25:08.704Z,30.7
2022-08-14T16:29:42.977Z,30.6
2022-08-14T16:34:59.005Z,30.6
2022-08-14T16:39:56.911Z,30.5
2022-08-14T16:44:59.891Z,30.3
2022-08-14T16:50:10.323Z,30
2022-08-14T16:55:08.739Z,29.8
2022-08-14T17:00:30.037Z,29.5
2022-08-14T17:05:16.911Z,29.3
2022-08-14T17:10:34.697Z,29
2022-08-14T17:15:29.467Z,28.8
2022-08-14T17:21:16.636Z,28.7
2022-08-14T17:25:37.085Z,28.6
2022-08-14T17:30:42.522Z,28.4
2022-08-14T17:43:59.700Z,28.2
2022-08-14T17:45:12.549Z,27.8
2022-08-14T17:51:03.135Z,27.7
2022-08-14T17:56:07.778Z,27.5
2022-08-14T18:00:21.457Z,27.3
2022-08-14T18:06:38.927Z,27.2
2022-08-14T18:10:58.210Z,27.1
2022-08-14T18:21:58.249Z,26.8
2022-08-14T18:25:42.813Z,26.7
2022-08-14T18:31:00.973Z,26.7
2022-08-14T18:36:47.086Z,26.6
2022-08-14T18:40:47.320Z,26.5
2022-08-14T18:45:54.132Z,26.4
2022-08-14T18:50:57.676Z,26.4
2022-08-14T18:56:11.571Z,26.2
2022-08-14T19:01:01.541Z,26.2
2022-08-14T19:06:06.700Z,26
2022-08-14T19:11:10.415Z,25.9
2022-08-14T19:16:22.714Z,25.7
2022-08-14T19:21:19.352Z,25.6
2022-08-14T19:26:55.807Z,25.5
2022-08-14T19:31:23.886Z,25.4
2022-08-14T19:37:06.394Z,25.5
2022-08-14T19:41:35.961Z,25.5
2022-08-14T19:47:08.068Z,25.5
2022-08-14T19:51:49.904Z,25.5
2022-08-14T19:56:54.510Z,25.5
2022-08-14T20:01:59.044Z,25.4
2022-08-14T20:06:57.735Z,25.4
2022-08-14T20:12:57.287Z,25.3
2022-08-14T20:17:10.652Z,25.2
2022-08-14T20:22:40.883Z,25.1
2022-08-14T20:27:21.293Z,25.1
2022-08-14T20:32:28.479Z,25
2022-08-14T20:38:33.795Z,24.9
2022-08-14T20:42:49.481Z,24.9
2022-08-14T20:47:54.897Z,24.8
2022-08-14T20:52:49.429Z,24.8
2022-08-14T20:58:00.136Z,24.7
2022-08-14T21:03:04.989Z,24.4
2022-08-14T21:08:27.192Z,24.1
2022-08-14T21:14:28.324Z,23.9
2022-08-14T21:18:29.802Z,23.7
2022-08-14T21:23:34.732Z,23.6
2022-08-14T21:28:37.895Z,23.6
2022-08-14T21:33:45.933Z,23.5
2022-08-14T21:38:50.508Z,23.4
2022-08-14T21:43:54.615Z,23.2
2022-08-14T21:48:59.463Z,23.1
2022-08-14T21:54:06.689Z,23
2022-08-14T21:59:11.520Z,22.9
2022-08-14T22:04:42.564Z,22.8
2022-08-14T22:09:38.044Z,22.7
2022-08-14T22:14:28.338Z,22.6
2022-08-14T22:19:56.999Z,22.6
2022-08-14T22:25:01.644Z,22.5
2022-08-14T22:29:57.727Z,22.4
2022-08-14T22:34:51.700Z,22.3
2022-08-14T22:41:31.378Z,22.3
2022-08-14T22:44:58.939Z,22.2
2022-08-14T22:50:35.315Z,22.1
2022-08-14T22:54:56.253Z,22.1
2022-08-14T23:00:02.265Z,22
2022-08-14T23:05:08.628Z,22
2022-08-14T23:10:36.247Z,21.9
2022-08-14T23:15:23.805Z,21.7
2022-08-14T23:20:21.654Z,21.6
2022-08-14T23:26:53.712Z,21.6
2022-08-14T23:30:36.788Z,21.7
2022-08-14T23:35:35.745Z,21.7
2022-08-14T23:40:38.578Z,21.6
2022-08-14T23:45:44.345Z,21.6
2022-08-14T23:50:46.646Z,21.5
2022-08-14T23:55:59.143Z,21.3
